createdAt,value
2023-03-03T00:02:16.278Z,93.13
2023-03-03T00:04:48.790Z,93.18
2023-03-03T00:07:23.467Z,94.36
2023-03-03T00:09:56.337Z,93.41
2023-03-03T00:12:28.689Z,93.38
2023-03-03T00:14:58.897Z,92.51
2023-03-03T00:17:30.339Z,92.74
2023-03-03T00:20:06.179Z,93.39
2023-03-03T00:22:40.403Z,93.46
2023-03-03T00:25:31.003Z,94.20
2023-03-03T00:28:08.388Z,93.44
2023-03-03T00:30:38.311Z,93.01
2023-03-03T00:33:23.546Z,93.93
2023-03-03T00:35:55.945Z,93.46
2023-03-03T00:38:26.343Z,93.64
2023-03-03T00:40:56.504Z,93.88
2023-03-03T00:43:28.147Z,93.35
2023-03-03T00:45:59.545Z,94.01
2023-03-03T00:48:31.426Z,94.41
2023-03-03T00:51:12.067Z,94.15
2023-03-03T00:53:42.213Z,95.04
2023-03-03T00:56:11.993Z,94.79
2023-03-03T00:58:41.956Z,95.74
2023-03-03T01:01:11.774Z,96.28
2023-03-03T01:03:41.650Z,95.26
2023-03-03T01:06:15.525Z,96.27
2023-03-03T01:08:45.240Z,95.02
2023-03-03T01:11:19.363Z,95.46
2023-03-03T01:13:52.819Z,94.48
2023-03-03T01:16:23.543Z,94.15
2023-03-03T01:18:55.254Z,94.23
2023-03-03T01:21:28.037Z,94.33
2023-03-03T01:23:58.246Z,95.22
2023-03-03T01:26:31.643Z,94.62
2023-03-03T01:29:01.325Z,94.62
2023-03-03T01:31:31.322Z,94.47
2023-03-03T01:34:01.242Z,95.55
2023-03-03T01:36:33.678Z,94.62
2023-03-03T01:39:04.095Z,94.05
2023-03-03T01:41:35.369Z,94.38
2023-03-03T01:44:05.463Z,94.52
2023-03-03T01:46:44.622Z,94.50
2023-03-03T01:49:18.505Z,94.21
2023-03-03T01:51:58.144Z,93.69
2023-03-03T01:54:33.358Z,93.17
2023-03-03T01:57:08.546Z,93.56
2023-03-03T01:59:47.426Z,93.48
2023-03-03T02:02:17.386Z,93.13
2023-03-03T02:04:47.332Z,92.92
2023-03-03T02:07:22.108Z,92.93
2023-03-03T02:10:02.137Z,92.86
2023-03-03T02:12:36.674Z,93.33
2023-03-03T02:15:19.431Z,93.92
2023-03-03T02:17:51.242Z,96.43
2023-03-03T02:20:31.832Z,95.77
2023-03-03T02:23:10.791Z,95.63
2023-03-03T02:25:47.238Z,96.04
2023-03-03T02:28:20.130Z,95.27
2023-03-03T02:30:50.423Z,95.42
2023-03-03T02:33:20.204Z,95.57
2023-03-03T02:35:50.396Z,95.34
2023-03-03T02:38:28.858Z,95.69
2023-03-03T02:41:10.227Z,95.54
2023-03-03T02:43:48.803Z,96.62
2023-03-03T02:46:19.307Z,95.16
2023-03-03T02:48:49.273Z,95.41
2023-03-03T02:51:19.136Z,94.60
2023-03-03T02:53:49.046Z,95.29
2023-03-03T02:56:19.408Z,94.69
2023-03-03T02:58:51.952Z,94.94
2023-03-03T03:01:22.441Z,94.47
2023-03-03T03:03:52.490Z,93.61
2023-03-03T03:06:23.682Z,93.02
2023-03-03T03:08:56.461Z,93.08
2023-03-03T03:11:26.283Z,92.68
2023-03-03T03:14:00.104Z,92.45
2023-03-03T03:16:30.163Z,91.78
2023-03-03T03:19:00.155Z,91.92
2023-03-03T03:21:30.182Z,91.36
2023-03-03T03:24:00.660Z,91.38
2023-03-03T03:26:30.527Z,91.31
2023-03-03T03:29:03.218Z,91.12
2023-03-03T03:31:33.862Z,91.40
2023-03-03T03:34:03.615Z,91.83
2023-03-03T03:36:35.703Z,91.61
2023-03-03T03:39:06.459Z,92.26
2023-03-03T03:41:36.505Z,92.64
2023-03-03T03:44:08.956Z,91.92
2023-03-03T03:46:38.824Z,91.85
2023-03-03T03:49:08.921Z,92.61
2023-03-03T03:51:41.588Z,91.62
2023-03-03T03:54:11.629Z,92.14
2023-03-03T03:56:41.611Z,92.55
2023-03-03T03:59:14.086Z,93.02
2023-03-03T04:01:44.099Z,93.30
2023-03-03T04:04:14.111Z,94.16
2023-03-03T04:06:44.128Z,95.25
2023-03-03T04:09:14.073Z,94.29
2023-03-03T04:11:44.196Z,96.49
2023-03-03T04:14:16.798Z,95.66
2023-03-03T04:16:46.898Z,94.94
2023-03-03T04:19:16.779Z,94.33
2023-03-03T04:21:46.669Z,93.99
2023-03-03T04:24:16.933Z,93.55
2023-03-03T04:26:51.482Z,93.23
2023-03-03T04:29:24.118Z,93.48
2023-03-03T04:31:54.119Z,93.22
2023-03-03T04:34:24.114Z,93.60
2023-03-03T04:36:54.061Z,93.45
2023-03-03T04:39:24.050Z,93.56
2023-03-03T04:41:53.951Z,93.62
2023-03-03T04:44:27.630Z,94.38
2023-03-03T04:46:57.589Z,93.63
2023-03-03T04:49:27.715Z,93.37
2023-03-03T04:51:57.712Z,92.76
2023-03-03T04:54:27.928Z,93.35
2023-03-03T04:56:58.745Z,92.68
2023-03-03T04:59:31.630Z,92.69
2023-03-03T05:02:01.559Z,93.03
2023-03-03T05:04:33.354Z,92.93
2023-03-03T05:07:03.372Z,92.98
2023-03-03T05:09:33.554Z,92.81
2023-03-03T05:12:03.592Z,92.86
2023-03-03T05:14:36.159Z,93.08
2023-03-03T05:17:06.252Z,92.91
2023-03-03T05:19:36.590Z,92.57
2023-03-03T05:22:07.928Z,92.71
2023-03-03T05:24:37.887Z,92.76
2023-03-03T05:27:07.992Z,92.73
2023-03-03T05:29:40.705Z,92.75
2023-03-03T05:32:11.024Z,92.38
2023-03-03T05:34:41.459Z,92.39
2023-03-03T05:37:11.701Z,91.67
2023-03-03T05:39:42.078Z,92.40
2023-03-03T05:42:12.431Z,92.33
2023-03-03T05:44:45.572Z,92.19
2023-03-03T05:47:15.768Z,92.27
2023-03-03T05:49:45.719Z,92.19
2023-03-03T05:52:15.592Z,91.86
2023-03-03T05:54:45.486Z,92.07
2023-03-03T05:57:15.693Z,92.03
2023-03-03T05:59:48.279Z,91.77
2023-03-03T06:02:18.287Z,91.79
2023-03-03T06:04:48.531Z,91.71
2023-03-03T06:07:18.448Z,91.56
2023-03-03T06:09:48.386Z,91.35
2023-03-03T06:12:18.744Z,91.28
2023-03-03T06:14:51.338Z,91.23
2023-03-03T06:17:21.534Z,91.54
2023-03-03T06:19:51.800Z,91.62
2023-03-03T06:22:21.761Z,91.87
2023-03-03T06:24:55.663Z,92.20
2023-03-03T06:27:25.624Z,91.90
2023-03-03T06:29:58.356Z,92.14
2023-03-03T06:32:30.645Z,92.12
2023-03-03T06:35:00.663Z,92.17
2023-03-03T06:37:30.687Z,91.92
2023-03-03T06:40:01.097Z,91.95
2023-03-03T06:42:31.337Z,91.60
2023-03-03T06:45:04.061Z,91.02
2023-03-03T06:47:34.158Z,90.97
2023-03-03T06:50:04.255Z,91.07
2023-03-03T06:52:34.452Z,90.54
2023-03-03T06:55:16.292Z,90.56
2023-03-03T06:57:46.411Z,91.18
2023-03-03T07:00:23.217Z,91.11
2023-03-03T07:03:00.453Z,90.69
2023-03-03T07:05:33.290Z,91.29
2023-03-03T07:08:04.419Z,91.65
2023-03-03T07:10:35.890Z,90.98
2023-03-03T07:13:19.276Z,91.50
2023-03-03T07:15:53.443Z,91.31
2023-03-03T07:18:35.252Z,91.44
2023-03-03T07:21:17.698Z,91.62
2023-03-03T07:23:49.418Z,91.21
2023-03-03T07:26:23.056Z,91.36
2023-03-03T07:28:57.556Z,91.22
2023-03-03T07:31:37.120Z,91.51
2023-03-03T07:34:19.054Z,92.33
2023-03-03T07:36:49.352Z,91.63
2023-03-03T07:39:32.297Z,91.65
2023-03-03T07:42:17.768Z,92.28
2023-03-03T07:44:49.103Z,91.77
2023-03-03T07:47:25.894Z,92.42
2023-03-03T07:50:00.128Z,92.33
2023-03-03T07:52:34.137Z,91.99
2023-03-03T07:55:21.584Z,92.46
2023-03-03T07:57:59.102Z,92.25
2023-03-03T08:01:12.844Z,92.21
2023-03-03T08:03:47.952Z,92.09
2023-03-03T08:06:47.529Z,92.16
2023-03-03T08:09:33.080Z,91.92
2023-03-03T08:12:15.028Z,91.56
2023-03-03T08:14:45.175Z,92.17
2023-03-03T08:17:20.627Z,92.14
2023-03-03T08:19:54.336Z,92.24
2023-03-03T08:22:33.449Z,92.04
2023-03-03T08:25:03.754Z,92.53
2023-03-03T08:27:33.678Z,92.03
2023-03-03T08:30:03.669Z,92.23
2023-03-03T08:32:33.770Z,92.28
2023-03-03T08:35:06.979Z,92.13
2023-03-03T08:37:37.158Z,92.19
2023-03-03T08:40:07.666Z,92.94
2023-03-03T08:42:37.703Z,92.53
2023-03-03T08:45:08.696Z,92.47
2023-03-03T08:47:39.258Z,92.36
2023-03-03T08:50:12.809Z,92.06
2023-03-03T08:52:43.455Z,92.66
2023-03-03T08:55:13.942Z,92.67
2023-03-03T08:57:44.206Z,93.04
2023-03-03T09:00:17.020Z,93.27
2023-03-03T09:02:47.287Z,92.71
2023-03-03T09:05:21.183Z,93.17
2023-03-03T09:07:52.384Z,92.93
2023-03-03T09:10:29.656Z,93.07
2023-03-03T09:13:02.031Z,93.38
2023-03-03T09:15:34.040Z,92.92
2023-03-03T09:18:16.958Z,92.84
2023-03-03T09:20:51.213Z,92.84
2023-03-03T09:23:37.288Z,92.99
2023-03-03T09:26:32.689Z,93.20
2023-03-03T09:29:13.312Z,92.81
2023-03-03T09:31:46.408Z,92.84
2023-03-03T09:34:23.877Z,93.51
2023-03-03T09:37:00.277Z,93.51
2023-03-03T09:39:33.847Z,93.05
2023-03-03T09:42:36.401Z,93.00
2023-03-03T09:45:24.029Z,93.47
2023-03-03T09:48:13.995Z,93.10
2023-03-03T09:50:55.246Z,93.08
2023-03-03T09:53:45.477Z,92.96
2023-03-03T09:56:22.663Z,92.46
2023-03-03T09:59:07.694Z,92.68
2023-03-03T10:01:53.581Z,93.16
2023-03-03T10:04:45.627Z,92.90
2023-03-03T10:07:31.196Z,92.49
2023-03-03T10:10:23.074Z,92.61
2023-03-03T10:13:09.616Z,92.21
2023-03-03T10:15:54.315Z,92.17
2023-03-03T10:18:33.852Z,92.01
2023-03-03T10:21:14.844Z,92.16
2023-03-03T10:23:59.315Z,91.93
2023-03-03T10:27:13.518Z,91.76
2023-03-03T10:29:56.735Z,91.66
2023-03-03T10:33:06.097Z,91.35
2023-03-03T10:36:05.844Z,91.16
2023-03-03T10:38:49.626Z,91.04
2023-03-03T10:41:33.966Z,91.31
2023-03-03T10:44:21.979Z,91.15
2023-03-03T10:47:05.441Z,91.71
2023-03-03T10:49:51.393Z,90.64
2023-03-03T10:52:34.383Z,91.14
2023-03-03T10:55:21.058Z,90.67
2023-03-03T10:58:03.322Z,90.70
2023-03-03T11:00:42.420Z,91.13
2023-03-03T11:03:50.310Z,90.51
2023-03-03T11:06:28.107Z,90.49
2023-03-03T11:09:03.060Z,90.54
2023-03-03T11:11:44.773Z,90.29
2023-03-03T11:14:19.437Z,90.20
2023-03-03T11:17:04.385Z,89.62
2023-03-03T11:19:46.764Z,90.09
2023-03-03T11:22:30.963Z,89.34
2023-03-03T11:25:11.596Z,89.21
2023-03-03T11:28:19.222Z,89.01
2023-03-03T11:31:03.671Z,89.64
2023-03-03T11:33:43.671Z,89.17
2023-03-03T11:36:19.415Z,89.35
2023-03-03T11:38:59.564Z,89.07
2023-03-03T11:41:43.652Z,89.19
2023-03-03T11:44:24.026Z,88.44
2023-03-03T11:46:59.893Z,88.19
2023-03-03T11:49:39.860Z,88.58
2023-03-03T11:52:25.112Z,87.30
2023-03-03T11:55:00.616Z,88.12
2023-03-03T11:57:35.970Z,88.32
2023-03-03T12:00:27.132Z,88.33
2023-03-03T12:03:20.039Z,86.33
2023-03-03T12:06:01.520Z,85.23
2023-03-03T12:08:44.120Z,85.57
2023-03-03T12:11:24.699Z,86.41
2023-03-03T12:14:01.473Z,86.64
2023-03-03T12:16:45.789Z,86.23
2023-03-03T12:19:28.308Z,85.89
2023-03-03T12:22:17.114Z,85.00
2023-03-03T12:25:20.920Z,83.99
2023-03-03T12:27:57.874Z,85.21
2023-03-03T12:30:56.077Z,84.27
2023-03-03T12:33:35.225Z,85.23
2023-03-03T12:36:18.936Z,84.93
2023-03-03T12:38:59.112Z,83.89
2023-03-03T12:41:38.715Z,83.43
2023-03-03T12:44:16.742Z,84.37
2023-03-03T12:46:49.673Z,83.80
2023-03-03T12:49:19.580Z,84.16
2023-03-03T12:52:09.164Z,81.91
2023-03-03T12:54:56.397Z,82.08
2023-03-03T12:57:35.661Z,82.69
2023-03-03T13:00:30.283Z,82.68
2023-03-03T13:03:09.603Z,81.98
2023-03-03T13:05:52.745Z,81.20
2023-03-03T13:08:40.869Z,81.37
2023-03-03T13:11:31.375Z,81.60
2023-03-03T13:14:11.575Z,81.98
2023-03-03T13:16:47.414Z,82.63
2023-03-03T13:19:23.242Z,81.65
2023-03-03T13:21:58.569Z,81.92
2023-03-03T13:24:37.553Z,81.15
2023-03-03T13:27:14.050Z,81.28
2023-03-03T13:29:45.660Z,80.79
2023-03-03T13:32:21.623Z,80.75
2023-03-03T13:34:58.257Z,80.35
2023-03-03T13:37:32.747Z,79.41
2023-03-03T13:40:08.670Z,80.84
2023-03-03T13:42:44.735Z,80.57
2023-03-03T13:45:26.657Z,80.62
2023-03-03T13:48:03.066Z,78.48
2023-03-03T13:50:38.311Z,78.25
2023-03-03T13:53:27.529Z,78.84
2023-03-03T13:56:04.392Z,78.59
2023-03-03T13:58:45.355Z,78.34
2023-03-03T14:01:21.512Z,78.55
2023-03-03T14:04:02.700Z,77.97
2023-03-03T14:06:33.371Z,78.63
2023-03-03T14:09:12.376Z,77.70
2023-03-03T14:11:50.049Z,78.09
2023-03-03T14:14:42.746Z,77.65
2023-03-03T14:17:19.545Z,78.42
2023-03-03T14:19:57.818Z,78.37
2023-03-03T14:22:36.740Z,76.31
2023-03-03T14:25:11.691Z,77.44
2023-03-03T14:27:44.070Z,77.65
2023-03-03T14:30:35.877Z,74.99
2023-03-03T14:33:18.845Z,76.76
2023-03-03T14:35:54.872Z,75.99
2023-03-03T14:38:27.923Z,75.09
2023-03-03T14:41:09.163Z,74.63
2023-03-03T14:43:40.673Z,74.81
2023-03-03T14:46:36.497Z,74.76
2023-03-03T14:49:09.079Z,75.87
2023-03-03T14:51:48.385Z,73.91
2023-03-03T14:54:25.245Z,75.96
2023-03-03T14:57:10.864Z,74.39
2023-03-03T14:59:40.942Z,74.95
2023-03-03T15:02:39.012Z,74.18
2023-03-03T15:05:33.015Z,73.58
2023-03-03T15:08:13.347Z,73.44
2023-03-03T15:10:45.124Z,74.83
2023-03-03T15:13:36.546Z,74.58
2023-03-03T15:16:15.040Z,73.53
2023-03-03T15:19:21.095Z,72.43
2023-03-03T15:22:03.682Z,72.90
2023-03-03T15:24:41.649Z,72.64
2023-03-03T15:27:20.580Z,73.11
2023-03-03T15:30:04.103Z,73.30
2023-03-03T15:32:40.948Z,73.29
2023-03-03T15:35:28.468Z,72.83
2023-03-03T15:38:05.821Z,72.25
2023-03-03T15:40:42.273Z,73.36
2023-03-03T15:43:23.457Z,71.71
2023-03-03T15:46:01.868Z,73.72
2023-03-03T15:49:03.697Z,71.48
2023-03-03T15:52:03.678Z,73.03
2023-03-03T15:54:45.408Z,72.36
2023-03-03T15:57:25.146Z,72.74
2023-03-03T16:00:12.129Z,71.15
2023-03-03T16:02:52.429Z,71.04
2023-03-03T16:05:26.628Z,71.30
2023-03-03T16:08:14.186Z,72.41
2023-03-03T16:10:55.481Z,72.51
2023-03-03T16:13:35.753Z,71.55
2023-03-03T16:16:15.839Z,72.61
2023-03-03T16:19:01.101Z,72.47
2023-03-03T16:21:53.544Z,72.32
2023-03-03T16:24:35.276Z,72.70
2023-03-03T16:27:15.975Z,72.86
2023-03-03T16:30:06.163Z,72.57
2023-03-03T16:32:43.766Z,73.32
2023-03-03T16:35:25.214Z,72.36
2023-03-03T16:38:01.208Z,72.86
2023-03-03T16:40:37.549Z,73.08
2023-03-03T16:43:21.879Z,73.23
2023-03-03T16:45:52.692Z,74.05
2023-03-03T16:48:35.490Z,73.24
2023-03-03T16:51:17.687Z,73.38
2023-03-03T16:53:57.212Z,73.37
2023-03-03T16:56:36.965Z,73.25
2023-03-03T16:59:24.028Z,73.95
2023-03-03T17:02:06.414Z,73.96
2023-03-03T17:04:46.263Z,74.10
2023-03-03T17:07:34.239Z,73.61
2023-03-03T17:10:19.666Z,74.05
2023-03-03T17:13:19.348Z,73.40
2023-03-03T17:16:03.088Z,73.85
2023-03-03T17:18:43.329Z,73.86
2023-03-03T17:21:23.325Z,74.17
2023-03-03T17:24:04.313Z,74.12
2023-03-03T17:26:46.036Z,73.81
2023-03-03T17:29:43.415Z,74.20
2023-03-03T17:32:28.586Z,74.58
2023-03-03T17:35:17.074Z,74.59
2023-03-03T17:37:57.121Z,74.75
2023-03-03T17:40:44.883Z,74.50
2023-03-03T17:43:20.229Z,75.02
2023-03-03T17:45:55.806Z,75.11
2023-03-03T17:48:50.888Z,74.81
2023-03-03T17:51:37.332Z,75.01
2023-03-03T17:54:31.176Z,74.92
2023-03-03T17:57:14.163Z,74.80
2023-03-03T18:00:09.624Z,74.71
2023-03-03T18:03:11.954Z,74.88
2023-03-03T18:06:15.904Z,74.85
2023-03-03T18:09:13.614Z,74.98
2023-03-03T18:12:00.961Z,75.16
2023-03-03T18:14:49.755Z,75.08
2023-03-03T18:17:38.367Z,75.33
2023-03-03T18:20:49.948Z,75.21
2023-03-03T18:23:34.148Z,75.34
2023-03-03T18:26:05.378Z,75.75
2023-03-03T18:28:49.784Z,75.69
2023-03-03T18:31:27.994Z,76.74
2023-03-03T18:34:10.031Z,75.94
2023-03-03T18:36:56.069Z,76.68
2023-03-03T18:39:45.710Z,76.53
2023-03-03T18:42:38.173Z,76.52
2023-03-03T18:45:44.030Z,76.78
2023-03-03T18:48:15.216Z,76.54
2023-03-03T18:50:47.424Z,76.88
2023-03-03T18:53:28.813Z,76.78
2023-03-03T18:56:00.743Z,76.85
2023-03-03T18:58:42.513Z,77.12
2023-03-03T19:01:39.253Z,78.06
2023-03-03T19:04:24.790Z,77.82
2023-03-03T19:07:13.539Z,77.82
2023-03-03T19:09:57.351Z,77.70
2023-03-03T19:12:46.776Z,78.15
2023-03-03T19:15:51.872Z,78.27
2023-03-03T19:18:25.826Z,78.00
2023-03-03T19:21:00.109Z,77.85
2023-03-03T19:23:52.772Z,79.06
2023-03-03T19:26:53.279Z,78.02
2023-03-03T19:29:53.134Z,78.58
2023-03-03T19:33:02.670Z,78.25
2023-03-03T19:35:41.644Z,78.38
2023-03-03T19:38:25.528Z,77.81
2023-03-03T19:41:01.581Z,77.67
2023-03-03T19:43:41.981Z,77.89
2023-03-03T19:46:30.014Z,77.81
2023-03-03T19:49:13.885Z,78.19
2023-03-03T19:51:53.255Z,78.14
2023-03-03T19:54:37.452Z,78.81
2023-03-03T19:57:14.437Z,78.92
2023-03-03T19:59:51.321Z,78.68
2023-03-03T20:02:37.903Z,78.36
2023-03-03T20:05:22.695Z,78.19
2023-03-03T20:08:00.155Z,78.20
2023-03-03T20:10:51.217Z,77.43
2023-03-03T20:13:58.122Z,77.71
2023-03-03T20:16:41.533Z,77.24
2023-03-03T20:19:27.838Z,77.38
2023-03-03T20:22:12.031Z,77.22
2023-03-03T20:24:57.792Z,76.47
2023-03-03T20:27:36.421Z,76.79
2023-03-03T20:30:13.366Z,76.91
2023-03-03T20:32:57.672Z,76.58
2023-03-03T20:35:40.019Z,76.69
2023-03-03T20:38:25.327Z,76.35
2023-03-03T20:41:06.320Z,76.20
2023-03-03T20:43:50.532Z,76.49
2023-03-03T20:46:25.963Z,76.75
2023-03-03T20:49:14.045Z,76.61
2023-03-03T20:51:50.089Z,76.61
2023-03-03T20:54:30.042Z,76.31
2023-03-03T20:57:09.137Z,76.54
2023-03-03T20:59:45.211Z,76.85
2023-03-03T21:02:23.707Z,76.52
2023-03-03T21:05:12.384Z,76.59
2023-03-03T21:07:53.878Z,76.22
2023-03-03T21:10:28.402Z,77.20
2023-03-03T21:13:01.118Z,77.10
2023-03-03T21:15:34.065Z,76.94
2023-03-03T21:18:22.467Z,76.78
2023-03-03T21:20:52.645Z,76.75
2023-03-03T21:23:23.466Z,76.68
2023-03-03T21:25:58.643Z,76.67
2023-03-03T21:28:30.706Z,77.10
2023-03-03T21:31:13.310Z,77.39
2023-03-03T21:33:54.783Z,76.95
2023-03-03T21:36:26.645Z,76.49
2023-03-03T21:38:58.552Z,76.52
2023-03-03T21:41:31.142Z,76.09
2023-03-03T21:44:00.925Z,76.22
2023-03-03T21:46:30.900Z,76.04
2023-03-03T21:49:00.656Z,75.99
2023-03-03T21:51:30.671Z,76.08
2023-03-03T21:54:00.513Z,76.02
2023-03-03T21:56:35.169Z,76.18
2023-03-03T21:59:04.976Z,76.36
2023-03-03T22:01:37.740Z,76.53
2023-03-03T22:04:08.671Z,76.56
2023-03-03T22:06:39.893Z,75.63
2023-03-03T22:09:10.629Z,76.37
2023-03-03T22:11:43.378Z,76.23
2023-03-03T22:14:13.278Z,76.00
2023-03-03T22:16:43.292Z,76.10
2023-03-03T22:19:13.168Z,76.10
2023-03-03T22:21:43.877Z,76.01
2023-03-03T22:24:13.791Z,76.17
2023-03-03T22:26:46.707Z,76.24
2023-03-03T22:29:17.252Z,76.64
2023-03-03T22:31:47.185Z,77.04
2023-03-03T22:34:17.995Z,76.93
2023-03-03T22:36:47.741Z,76.69
2023-03-03T22:39:17.570Z,76.85
2023-03-03T22:41:49.921Z,76.40
2023-03-03T22:44:19.891Z,77.16
2023-03-03T22:46:49.628Z,77.58
2023-03-03T22:49:19.541Z,77.22
2023-03-03T22:51:49.356Z,77.12
2023-03-03T22:54:19.141Z,76.92
2023-03-03T22:56:51.806Z,77.02
2023-03-03T22:59:22.196Z,76.76
2023-03-03T23:01:52.022Z,76.92
2023-03-03T23:04:21.891Z,76.82
2023-03-03T23:06:52.004Z,77.17
2023-03-03T23:09:21.850Z,76.93
2023-03-03T23:11:54.810Z,77.19
2023-03-03T23:14:24.577Z,76.74
2023-03-03T23:16:54.588Z,76.89
2023-03-03T23:19:24.496Z,77.24
2023-03-03T23:21:54.420Z,77.26
2023-03-03T23:24:24.208Z,76.98
2023-03-03T23:26:58.197Z,76.93
2023-03-03T23:29:28.272Z,77.06
2023-03-03T23:31:58.030Z,76.94
2023-03-03T23:34:27.984Z,77.27
2023-03-03T23:36:57.968Z,77.07
2023-03-03T23:39:28.057Z,77.08
2023-03-03T23:42:00.453Z,76.69
2023-03-03T23:44:30.237Z,77.33
2023-03-03T23:47:00.052Z,77.28
2023-03-03T23:49:29.928Z,77.27
2023-03-03T23:51:59.680Z,77.24
2023-03-03T23:54:29.994Z,77.46
2023-03-03T23:57:02.483Z,77.50
2023-03-03T23:59:32.427Z,77.46
